sensor_id;sensor_type;location;lat;lon;timestamp;pressure;altitude;pressure_sealevel;temperature;humidity
51715;BME280;39115;59.332;18.034;2023-04-23T00:01:31;100419.53;;;11.85;36.72
51715;BME280;39115;59.332;18.034;2023-04-23T00:03:54;100418.03;;;11.83;36.51
51715;BME280;39115;59.332;18.034;2023-04-23T00:06:16;100422.97;;;11.78;37.11
51715;BME280;39115;59.332;18.034;2023-04-23T00:08:37;100413.75;;;11.72;36.87
51715;BME280;39115;59.332;18.034;2023-04-23T00:10:58;100412.34;;;11.68;36.70
51715;BME280;39115;59.332;18.034;2023-04-23T00:13:19;100411.81;;;11.64;37.22
51715;BME280;39115;59.332;18.034;2023-04-23T00:15:39;100410.28;;;11.62;37.01
51715;BME280;39115;59.332;18.034;2023-04-23T00:18:00;100415.09;;;11.58;37.02
51715;BME280;39115;59.332;18.034;2023-04-23T00:20:20;100410.03;;;11.55;37.07
51715;BME280;39115;59.332;18.034;2023-04-23T00:22:42;100409.38;;;11.53;36.90
51715;BME280;39115;59.332;18.034;2023-04-23T00:25:02;100406.16;;;11.49;36.92
51715;BME280;39115;59.332;18.034;2023-04-23T00:27:23;100401.13;;;11.46;36.94
51715;BME280;39115;59.332;18.034;2023-04-23T00:29:43;100393.28;;;11.45;37.14
51715;BME280;39115;59.332;18.034;2023-04-23T00:32:05;100399.75;;;11.42;36.94
51715;BME280;39115;59.332;18.034;2023-04-23T00:34:26;100394.56;;;11.41;36.87
51715;BME280;39115;59.332;18.034;2023-04-23T00:36:46;100392.22;;;11.37;36.96
51715;BME280;39115;59.332;18.034;2023-04-23T00:39:07;100398.69;;;11.35;36.93
51715;BME280;39115;59.332;18.034;2023-04-23T00:41:28;100392.81;;;11.31;36.63
51715;BME280;39115;59.332;18.034;2023-04-23T00:43:49;100382.44;;;11.28;37.02
51715;BME280;39115;59.332;18.034;2023-04-23T00:46:11;100383.69;;;11.24;37.22
51715;BME280;39115;59.332;18.034;2023-04-23T00:48:32;100384.00;;;11.21;36.92
51715;BME280;39115;59.332;18.034;2023-04-23T00:51:02;100383.47;;;11.17;37.05
51715;BME280;39115;59.332;18.034;2023-04-23T00:53:23;100373.25;;;11.13;37.36
51715;BME280;39115;59.332;18.034;2023-04-23T00:55:43;100375.22;;;11.11;37.55
51715;BME280;39115;59.332;18.034;2023-04-23T00:58:03;100371.84;;;11.08;36.92
51715;BME280;39115;59.332;18.034;2023-04-23T01:00:25;100373.97;;;11.05;37.07
51715;BME280;39115;59.332;18.034;2023-04-23T01:02:46;100373.31;;;11.03;36.79
51715;BME280;39115;59.332;18.034;2023-04-23T01:05:07;100369.25;;;10.99;37.57
51715;BME280;39115;59.332;18.034;2023-04-23T01:07:28;100370.66;;;10.93;37.17
51715;BME280;39115;59.332;18.034;2023-04-23T01:09:49;100369.28;;;10.89;37.47
51715;BME280;39115;59.332;18.034;2023-04-23T01:12:10;100367.88;;;10.85;37.80
51715;BME280;39115;59.332;18.034;2023-04-23T01:14:30;100365.69;;;10.80;37.56
51715;BME280;39115;59.332;18.034;2023-04-23T01:16:51;100366.13;;;10.75;37.75
51715;BME280;39115;59.332;18.034;2023-04-23T01:19:12;100361.06;;;10.72;37.34
51715;BME280;39115;59.332;18.034;2023-04-23T01:21:35;100363.19;;;10.69;37.53
51715;BME280;39115;59.332;18.034;2023-04-23T01:23:56;100359.97;;;10.65;37.45
51715;BME280;39115;59.332;18.034;2023-04-23T01:26:17;100361.81;;;10.65;37.53
51715;BME280;39115;59.332;18.034;2023-04-23T01:28:38;100358.44;;;10.63;37.61
51715;BME280;39115;59.332;18.034;2023-04-23T01:30:58;100365.72;;;10.60;37.55
51715;BME280;39115;59.332;18.034;2023-04-23T01:33:19;100366.88;;;10.58;37.20
51715;BME280;39115;59.332;18.034;2023-04-23T01:35:39;100361.69;;;10.56;37.52
51715;BME280;39115;59.332;18.034;2023-04-23T01:38:00;100355.66;;;10.54;37.35
51715;BME280;39115;59.332;18.034;2023-04-23T01:40:21;100358.47;;;10.53;37.73
51715;BME280;39115;59.332;18.034;2023-04-23T01:42:42;100358.59;;;10.51;37.58
51715;BME280;39115;59.332;18.034;2023-04-23T01:45:02;100360.03;;;10.46;37.72
51715;BME280;39115;59.332;18.034;2023-04-23T01:47:22;100355.00;;;10.42;37.83
51715;BME280;39115;59.332;18.034;2023-04-23T01:49:43;100353.47;;;10.40;37.51
51715;BME280;39115;59.332;18.034;2023-04-23T01:52:03;100359.91;;;10.37;37.51
51715;BME280;39115;59.332;18.034;2023-04-23T01:54:23;100350.34;;;10.35;37.33
51715;BME280;39115;59.332;18.034;2023-04-23T01:56:44;100349.78;;;10.31;38.07
51715;BME280;39115;59.332;18.034;2023-04-23T01:59:04;100355.41;;;10.28;37.52
51715;BME280;39115;59.332;18.034;2023-04-23T02:01:39;100353.88;;;10.25;37.43
51715;BME280;39115;59.332;18.034;2023-04-23T02:03:59;100352.31;;;10.23;37.98
51715;BME280;39115;59.332;18.034;2023-04-23T02:06:20;100354.31;;;10.21;37.65
51715;BME280;39115;59.332;18.034;2023-04-23T02:08:40;100350.78;;;10.20;37.61
51715;BME280;39115;59.332;18.034;2023-04-23T02:11:01;100351.09;;;10.17;38.05
51715;BME280;39115;59.332;18.034;2023-04-23T02:13:21;100346.19;;;10.12;37.73
51715;BME280;39115;59.332;18.034;2023-04-23T02:15:42;100352.09;;;10.06;38.15
51715;BME280;39115;59.332;18.034;2023-04-23T02:18:03;100346.31;;;10.01;38.13
51715;BME280;39115;59.332;18.034;2023-04-23T02:20:23;100345.06;;;9.95;38.11
51715;BME280;39115;59.332;18.034;2023-04-23T02:22:44;100349.25;;;9.88;37.84
51715;BME280;39115;59.332;18.034;2023-04-23T02:25:05;100349.13;;;9.80;38.56
51715;BME280;39115;59.332;18.034;2023-04-23T02:27:26;100346.75;;;9.77;38.09
51715;BME280;39115;59.332;18.034;2023-04-23T02:29:47;100373.75;;;9.72;38.39
51715;BME280;39115;59.332;18.034;2023-04-23T02:32:08;100387.84;;;9.63;38.41
51715;BME280;39115;59.332;18.034;2023-04-23T02:34:28;100381.81;;;9.51;38.26
51715;BME280;39115;59.332;18.034;2023-04-23T02:36:49;100393.00;;;9.45;38.26
51715;BME280;39115;59.332;18.034;2023-04-23T02:39:10;100392.44;;;9.41;38.62
51715;BME280;39115;59.332;18.034;2023-04-23T02:41:30;100413.53;;;9.43;38.50
51715;BME280;39115;59.332;18.034;2023-04-23T02:43:50;100391.31;;;9.44;38.49
51715;BME280;39115;59.332;18.034;2023-04-23T02:46:11;100395.66;;;9.45;38.59
51715;BME280;39115;59.332;18.034;2023-04-23T02:48:31;100372.88;;;9.42;38.43
51715;BME280;39115;59.332;18.034;2023-04-23T02:50:52;100409.19;;;9.42;38.47
51715;BME280;39115;59.332;18.034;2023-04-23T02:53:12;100376.91;;;9.37;38.73
51715;BME280;39115;59.332;18.034;2023-04-23T02:55:32;100389.22;;;9.38;38.92
51715;BME280;39115;59.332;18.034;2023-04-23T02:57:53;100392.84;;;9.37;38.46
51715;BME280;39115;59.332;18.034;2023-04-23T03:00:13;100360.13;;;9.36;38.58
51715;BME280;39115;59.332;18.034;2023-04-23T03:02:34;100383.03;;;9.37;38.56
51715;BME280;39115;59.332;18.034;2023-04-23T03:04:54;100370.88;;;9.34;38.67
51715;BME280;39115;59.332;18.034;2023-04-23T03:07:15;100360.25;;;9.34;38.76
51715;BME280;39115;59.332;18.034;2023-04-23T03:09:36;100372.31;;;9.39;38.73
51715;BME280;39115;59.332;18.034;2023-04-23T03:11:56;100377.59;;;9.39;38.92
51715;BME280;39115;59.332;18.034;2023-04-23T03:14:17;100359.00;;;9.39;38.99
51715;BME280;39115;59.332;18.034;2023-04-23T03:16:37;100363.34;;;9.40;38.91
51715;BME280;39115;59.332;18.034;2023-04-23T03:18:58;100374.09;;;9.38;38.60
51715;BME280;39115;59.332;18.034;2023-04-23T03:21:18;100362.66;;;9.38;38.56
51715;BME280;39115;59.332;18.034;2023-04-23T03:23:39;100350.91;;;9.40;38.50
51715;BME280;39115;59.332;18.034;2023-04-23T03:25:59;100365.03;;;9.41;38.50
51715;BME280;39115;59.332;18.034;2023-04-23T03:28:20;100371.59;;;9.37;38.77
51715;BME280;39115;59.332;18.034;2023-04-23T03:30:40;100360.13;;;9.36;38.61
51715;BME280;39115;59.332;18.034;2023-04-23T03:33:01;100369.91;;;9.36;38.61
51715;BME280;39115;59.332;18.034;2023-04-23T03:35:24;100366.41;;;9.35;38.74
51715;BME280;39115;59.332;18.034;2023-04-23T03:37:45;100373.69;;;9.33;38.64
51715;BME280;39115;59.332;18.034;2023-04-23T03:40:06;100354.38;;;9.31;39.12
51715;BME280;39115;59.332;18.034;2023-04-23T03:42:27;100357.16;;;9.29;39.18
51715;BME280;39115;59.332;18.034;2023-04-23T03:44:47;100352.69;;;9.30;38.81
51715;BME280;39115;59.332;18.034;2023-04-23T03:47:08;100350.03;;;9.30;39.17
51715;BME280;39115;59.332;18.034;2023-04-23T03:49:28;100351.84;;;9.29;38.85
51715;BME280;39115;59.332;18.034;2023-04-23T03:51:48;100361.22;;;9.33;38.75
51715;BME280;39115;59.332;18.034;2023-04-23T03:54:09;100352.56;;;9.31;38.87
51715;BME280;39115;59.332;18.034;2023-04-23T03:56:29;100362.22;;;9.32;38.76
51715;BME280;39115;59.332;18.034;2023-04-23T03:58:50;100368.50;;;9.31;38.83
51715;BME280;39115;59.332;18.034;2023-04-23T04:01:10;100365.72;;;9.33;38.90
51715;BME280;39115;59.332;18.034;2023-04-23T04:03:30;100356.06;;;9.32;38.79
51715;BME280;39115;59.332;18.034;2023-04-23T04:05:51;100361.22;;;9.33;39.30
51715;BME280;39115;59.332;18.034;2023-04-23T04:08:11;100362.91;;;9.34;39.39
51715;BME280;39115;59.332;18.034;2023-04-23T04:10:31;100364.34;;;9.39;38.88
51715;BME280;39115;59.332;18.034;2023-04-23T04:12:52;100350.91;;;9.40;38.79
51715;BME280;39115;59.332;18.034;2023-04-23T04:15:14;100347.28;;;9.41;39.01
51715;BME280;39115;59.332;18.034;2023-04-23T04:17:35;100339.56;;;9.38;39.20
51715;BME280;39115;59.332;18.034;2023-04-23T04:19:55;100343.19;;;9.37;39.04
51715;BME280;39115;59.332;18.034;2023-04-23T04:22:16;100344.19;;;9.36;38.80
51715;BME280;39115;59.332;18.034;2023-04-23T04:24:36;100348.66;;;9.36;38.96
51715;BME280;39115;59.332;18.034;2023-04-23T04:26:57;100347.41;;;9.40;39.29
51715;BME280;39115;59.332;18.034;2023-04-23T04:29:19;100346.88;;;9.46;38.95
51715;BME280;39115;59.332;18.034;2023-04-23T04:31:40;100338.59;;;9.49;39.08
51715;BME280;39115;59.332;18.034;2023-04-23T04:34:00;100340.16;;;9.52;39.11
51715;BME280;39115;59.332;18.034;2023-04-23T04:36:21;100336.50;;;9.53;38.82
51715;BME280;39115;59.332;18.034;2023-04-23T04:38:44;100347.59;;;9.58;39.38
51715;BME280;39115;59.332;18.034;2023-04-23T04:41:04;100340.03;;;9.63;38.99
51715;BME280;39115;59.332;18.034;2023-04-23T04:43:25;100332.47;;;9.68;38.85
51715;BME280;39115;59.332;18.034;2023-04-23T04:45:46;100328.41;;;9.74;39.09
51715;BME280;39115;59.332;18.034;2023-04-23T04:48:07;100334.03;;;9.80;39.08
51715;BME280;39115;59.332;18.034;2023-04-23T04:50:27;100333.47;;;9.87;39.23
51715;BME280;39115;59.332;18.034;2023-04-23T04:52:47;100336.69;;;9.90;39.15
51715;BME280;39115;59.332;18.034;2023-04-23T04:55:08;100330.94;;;9.95;38.80
51715;BME280;39115;59.332;18.034;2023-04-23T04:57:28;100335.84;;;10.00;39.13
51715;BME280;39115;59.332;18.034;2023-04-23T04:59:48;100333.31;;;10.08;39.12
51715;BME280;39115;59.332;18.034;2023-04-23T05:02:09;100336.09;;;10.16;39.40
51715;BME280;39115;59.332;18.034;2023-04-23T05:04:29;100331.03;;;10.23;38.99
51715;BME280;39115;59.332;18.034;2023-04-23T05:06:50;100330.19;;;10.32;38.57
51715;BME280;39115;59.332;18.034;2023-04-23T05:09:10;100338.06;;;10.43;39.27
51715;BME280;39115;59.332;18.034;2023-04-23T05:11:31;100338.16;;;10.52;38.96
51715;BME280;39115;59.332;18.034;2023-04-23T05:13:51;100339.53;;;10.56;38.75
51715;BME280;39115;59.332;18.034;2023-04-23T05:16:11;100340.78;;;10.62;38.46
51715;BME280;39115;59.332;18.034;2023-04-23T05:18:32;100339.50;;;10.66;39.23
51715;BME280;39115;59.332;18.034;2023-04-23T05:20:52;100339.63;;;10.74;38.50
51715;BME280;39115;59.332;18.034;2023-04-23T05:23:13;100331.91;;;10.81;39.22
51715;BME280;39115;59.332;18.034;2023-04-23T05:25:33;100332.84;;;10.89;38.67
51715;BME280;39115;59.332;18.034;2023-04-23T05:27:54;100330.44;;;10.96;38.54
51715;BME280;39115;59.332;18.034;2023-04-23T05:30:15;100329.13;;;11.00;38.86
51715;BME280;39115;59.332;18.034;2023-04-23T05:32:35;100335.72;;;11.06;39.13
51715;BME280;39115;59.332;18.034;2023-04-23T05:34:56;100323.63;;;11.12;39.16
51715;BME280;39115;59.332;18.034;2023-04-23T05:37:16;100323.56;;;11.21;38.63
51715;BME280;39115;59.332;18.034;2023-04-23T05:39:37;100323.38;;;11.33;38.90
51715;BME280;39115;59.332;18.034;2023-04-23T05:41:57;100319.50;;;11.45;38.64
51715;BME280;39115;59.332;18.034;2023-04-23T05:44:17;100322.09;;;11.55;38.76
51715;BME280;39115;59.332;18.034;2023-04-23T05:46:38;100310.38;;;11.66;38.66
51715;BME280;39115;59.332;18.034;2023-04-23T05:48:58;100308.47;;;11.76;38.63
51715;BME280;39115;59.332;18.034;2023-04-23T05:51:18;100312.19;;;11.83;38.71
51715;BME280;39115;59.332;18.034;2023-04-23T05:53:39;100304.72;;;11.87;38.52
51715;BME280;39115;59.332;18.034;2023-04-23T05:55:59;100310.56;;;11.91;38.55
51715;BME280;39115;59.332;18.034;2023-04-23T05:58:19;100316.16;;;11.97;38.73
51715;BME280;39115;59.332;18.034;2023-04-23T06:00:40;100314.56;;;12.05;38.84
51715;BME280;39115;59.332;18.034;2023-04-23T06:03:00;100315.44;;;12.13;38.33
51715;BME280;39115;59.332;18.034;2023-04-23T06:05:21;100319.03;;;12.22;38.46
51715;BME280;39115;59.332;18.034;2023-04-23T06:07:41;100317.72;;;12.26;38.44
51715;BME280;39115;59.332;18.034;2023-04-23T06:10:02;100323.28;;;12.33;38.51
51715;BME280;39115;59.332;18.034;2023-04-23T06:12:24;100322.81;;;12.38;38.49
51715;BME280;39115;59.332;18.034;2023-04-23T06:14:45;100318.50;;;12.45;38.70
51715;BME280;39115;59.332;18.034;2023-04-23T06:17:05;100320.91;;;12.56;38.49
51715;BME280;39115;59.332;18.034;2023-04-23T06:19:25;100320.28;;;12.62;38.48
51715;BME280;39115;59.332;18.034;2023-04-23T06:21:46;100320.16;;;12.72;38.26
51715;BME280;39115;59.332;18.034;2023-04-23T06:24:07;100318.06;;;12.84;38.21
51715;BME280;39115;59.332;18.034;2023-04-23T06:26:27;100310.44;;;12.97;38.41
51715;BME280;39115;59.332;18.034;2023-04-23T06:28:48;100309.16;;;13.10;38.29
51715;BME280;39115;59.332;18.034;2023-04-23T06:31:08;100310.69;;;13.21;38.28
51715;BME280;39115;59.332;18.034;2023-04-23T06:33:28;100318.13;;;13.43;38.20
51715;BME280;39115;59.332;18.034;2023-04-23T06:35:49;100307.97;;;13.64;37.80
51715;BME280;39115;59.332;18.034;2023-04-23T06:38:09;100297.78;;;13.75;38.01
51715;BME280;39115;59.332;18.034;2023-04-23T06:40:30;100302.78;;;13.95;37.72
51715;BME280;39115;59.332;18.034;2023-04-23T06:42:50;100302.59;;;14.13;37.63
51715;BME280;39115;59.332;18.034;2023-04-23T06:45:10;100299.22;;;14.36;37.46
51715;BME280;39115;59.332;18.034;2023-04-23T06:47:31;100294.00;;;14.51;37.21
51715;BME280;39115;59.332;18.034;2023-04-23T06:49:51;100297.34;;;14.69;37.50
51715;BME280;39115;59.332;18.034;2023-04-23T06:52:11;100297.63;;;14.83;37.23
51715;BME280;39115;59.332;18.034;2023-04-23T06:54:32;100292.53;;;14.96;37.18
51715;BME280;39115;59.332;18.034;2023-04-23T06:56:52;100293.50;;;15.04;37.55
51715;BME280;39115;59.332;18.034;2023-04-23T06:59:12;100291.06;;;15.17;37.36
51715;BME280;39115;59.332;18.034;2023-04-23T07:01:33;100285.81;;;15.32;37.19
51715;BME280;39115;59.332;18.034;2023-04-23T07:03:54;100291.78;;;15.42;37.10
51715;BME280;39115;59.332;18.034;2023-04-23T07:06:14;100287.19;;;15.51;37.02
51715;BME280;39115;59.332;18.034;2023-04-23T07:08:35;100284.69;;;15.73;36.97
51715;BME280;39115;59.332;18.034;2023-04-23T07:10:55;100282.19;;;15.94;36.79
51715;BME280;39115;59.332;18.034;2023-04-23T07:13:15;100282.03;;;16.11;36.90
51715;BME280;39115;59.332;18.034;2023-04-23T07:15:36;100282.50;;;16.15;36.88
51715;BME280;39115;59.332;18.034;2023-04-23T07:17:57;100277.41;;;16.05;37.11
51715;BME280;39115;59.332;18.034;2023-04-23T07:20:17;100277.94;;;16.00;37.52
51715;BME280;39115;59.332;18.034;2023-04-23T07:22:38;100278.16;;;16.13;37.08
51715;BME280;39115;59.332;18.034;2023-04-23T07:24:58;100272.25;;;16.33;37.12
51715;BME280;39115;59.332;18.034;2023-04-23T07:27:19;100270.69;;;16.39;37.01
51715;BME280;39115;59.332;18.034;2023-04-23T07:29:39;100269.66;;;16.25;37.11
51715;BME280;39115;59.332;18.034;2023-04-23T07:31:59;100266.69;;;16.20;37.18
51715;BME280;39115;59.332;18.034;2023-04-23T07:34:20;100269.84;;;16.23;37.24
51715;BME280;39115;59.332;18.034;2023-04-23T07:36:40;100268.09;;;16.31;37.47
51715;BME280;39115;59.332;18.034;2023-04-23T07:39:00;100262.63;;;16.24;37.27
51715;BME280;39115;59.332;18.034;2023-04-23T07:41:21;100257.53;;;16.14;37.36
51715;BME280;39115;59.332;18.034;2023-04-23T07:43:41;100250.56;;;16.05;37.83
51715;BME280;39115;59.332;18.034;2023-04-23T07:46:01;100246.03;;;16.05;37.71
51715;BME280;39115;59.332;18.034;2023-04-23T07:48:22;100249.91;;;16.03;37.52
51715;BME280;39115;59.332;18.034;2023-04-23T07:50:42;100245.19;;;16.05;37.81
51715;BME280;39115;59.332;18.034;2023-04-23T07:53:03;100239.63;;;16.06;37.35
51715;BME280;39115;59.332;18.034;2023-04-23T07:55:23;100238.44;;;16.09;37.76
51715;BME280;39115;59.332;18.034;2023-04-23T07:57:43;100234.19;;;16.15;37.25
51715;BME280;39115;59.332;18.034;2023-04-23T08:00:04;100236.22;;;16.27;37.10
51715;BME280;39115;59.332;18.034;2023-04-23T08:02:28;100235.41;;;16.27;37.20
51715;BME280;39115;59.332;18.034;2023-04-23T08:04:48;100231.88;;;16.41;36.93
51715;BME280;39115;59.332;18.034;2023-04-23T08:07:09;100243.09;;;16.60;36.83
51715;BME280;39115;59.332;18.034;2023-04-23T08:09:30;100233.69;;;16.86;36.82
51715;BME280;39115;59.332;18.034;2023-04-23T08:11:51;100222.81;;;17.09;36.83
51715;BME280;39115;59.332;18.034;2023-04-23T08:14:11;100225.31;;;17.32;36.38
51715;BME280;39115;59.332;18.034;2023-04-23T08:16:31;100224.50;;;17.53;36.42
51715;BME280;39115;59.332;18.034;2023-04-23T08:18:52;100217.59;;;17.73;36.28
51715;BME280;39115;59.332;18.034;2023-04-23T08:21:12;100220.66;;;17.91;36.12
51715;BME280;39115;59.332;18.034;2023-04-23T08:23:32;100220.84;;;18.11;36.13
51715;BME280;39115;59.332;18.034;2023-04-23T08:25:53;100204.97;;;18.23;35.91
51715;BME280;39115;59.332;18.034;2023-04-23T08:28:13;100209.34;;;18.31;36.04
51715;BME280;39115;59.332;18.034;2023-04-23T08:30:33;100202.78;;;18.47;35.89
51715;BME280;39115;59.332;18.034;2023-04-23T08:32:54;100206.56;;;18.59;35.72
51715;BME280;39115;59.332;18.034;2023-04-23T08:35:14;100205.38;;;18.75;35.76
51715;BME280;39115;59.332;18.034;2023-04-23T08:37:35;100198.56;;;18.86;35.65
51715;BME280;39115;59.332;18.034;2023-04-23T08:39:55;100204.59;;;18.88;35.86
51715;BME280;39115;59.332;18.034;2023-04-23T08:45:11;100198.06;;;19.18;35.58
51715;BME280;39115;59.332;18.034;2023-04-23T08:47:32;100200.78;;;19.18;35.83
51715;BME280;39115;59.332;18.034;2023-04-23T08:49:53;100198.69;;;19.13;35.75
51715;BME280;39115;59.332;18.034;2023-04-23T08:52:14;100202.19;;;19.14;35.74
51715;BME280;39115;59.332;18.034;2023-04-23T08:54:36;100201.41;;;19.20;35.93
51715;BME280;39115;59.332;18.034;2023-04-23T08:56:57;100199.53;;;19.20;35.69
51715;BME280;39115;59.332;18.034;2023-04-23T08:59:17;100202.22;;;19.20;35.76
51715;BME280;39115;59.332;18.034;2023-04-23T09:01:39;100187.69;;;19.08;35.85
51715;BME280;39115;59.332;18.034;2023-04-23T09:04:00;100190.34;;;18.94;36.05
51715;BME280;39115;59.332;18.034;2023-04-23T09:06:21;100186.56;;;18.89;36.01
51715;BME280;39115;59.332;18.034;2023-04-23T09:08:41;100193.41;;;18.85;36.08
51715;BME280;39115;59.332;18.034;2023-04-23T09:11:03;100181.97;;;18.76;36.28
51715;BME280;39115;59.332;18.034;2023-04-23T09:13:24;100173.03;;;18.69;36.18
51715;BME280;39115;59.332;18.034;2023-04-23T09:15:44;100174.28;;;18.66;36.36
51715;BME280;39115;59.332;18.034;2023-04-23T09:18:04;100175.31;;;18.72;36.18
51715;BME280;39115;59.332;18.034;2023-04-23T09:20:26;100174.53;;;18.85;36.15
51715;BME280;39115;59.332;18.034;2023-04-23T09:22:47;100179.75;;;18.93;35.91
51715;BME280;39115;59.332;18.034;2023-04-23T09:25:09;100176.66;;;18.96;36.02
51715;BME280;39115;59.332;18.034;2023-04-23T09:27:30;100175.00;;;19.02;35.81
51715;BME280;39115;59.332;18.034;2023-04-23T09:29:50;100176.69;;;19.09;35.82
51715;BME280;39115;59.332;18.034;2023-04-23T09:32:14;100173.59;;;19.13;35.89
51715;BME280;39115;59.332;18.034;2023-04-23T09:34:35;100177.94;;;19.14;35.81
51715;BME280;39115;59.332;18.034;2023-04-23T09:36:56;100173.38;;;19.14;35.85
51715;BME280;39115;59.332;18.034;2023-04-23T09:39:22;100163.00;;;19.18;35.74
51715;BME280;39115;59.332;18.034;2023-04-23T09:41:43;100167.16;;;19.20;35.79
51715;BME280;39115;59.332;18.034;2023-04-23T09:44:05;100167.16;;;19.20;35.67
51715;BME280;39115;59.332;18.034;2023-04-23T09:46:39;100162.56;;;19.21;35.65
51715;BME280;39115;59.332;18.034;2023-04-23T09:49:01;100161.38;;;19.23;35.84
51715;BME280;39115;59.332;18.034;2023-04-23T09:51:23;100156.56;;;19.25;35.63
51715;BME280;39115;59.332;18.034;2023-04-23T09:53:44;100167.19;;;19.27;35.54
51715;BME280;39115;59.332;18.034;2023-04-23T09:56:05;100155.53;;;19.26;35.50
51715;BME280;39115;59.332;18.034;2023-04-23T09:58:26;100152.84;;;19.20;35.66
51715;BME280;39115;59.332;18.034;2023-04-23T10:00:46;100157.81;;;19.09;35.76
51715;BME280;39115;59.332;18.034;2023-04-23T10:03:07;100157.19;;;19.01;35.71
51715;BME280;39115;59.332;18.034;2023-04-23T10:05:28;100165.03;;;18.95;35.88
51715;BME280;39115;59.332;18.034;2023-04-23T10:07:49;100158.19;;;18.93;35.89
51715;BME280;39115;59.332;18.034;2023-04-23T10:10:10;100156.72;;;18.90;35.73
51715;BME280;39115;59.332;18.034;2023-04-23T10:12:30;100145.50;;;18.87;35.83
51715;BME280;39115;59.332;18.034;2023-04-23T10:14:51;100151.72;;;18.87;35.81
51715;BME280;39115;59.332;18.034;2023-04-23T10:17:13;100141.78;;;18.88;35.78
51715;BME280;39115;59.332;18.034;2023-04-23T10:19:33;100134.09;;;18.85;35.69
51715;BME280;39115;59.332;18.034;2023-04-23T10:21:59;100126.00;;;18.85;35.75
51715;BME280;39115;59.332;18.034;2023-04-23T10:24:23;100111.69;;;18.91;35.79
51715;BME280;39115;59.332;18.034;2023-04-23T10:26:44;100115.66;;;19.02;35.59
51715;BME280;39115;59.332;18.034;2023-04-23T10:29:05;100110.31;;;19.15;35.41
51715;BME280;39115;59.332;18.034;2023-04-23T10:31:28;100117.38;;;19.30;35.48
51715;BME280;39115;59.332;18.034;2023-04-23T10:33:51;100112.16;;;19.41;35.42
51715;BME280;39115;59.332;18.034;2023-04-23T10:36:13;100111.31;;;19.41;35.41
51715;BME280;39115;59.332;18.034;2023-04-23T10:38:33;100110.31;;;19.28;35.60
51715;BME280;39115;59.332;18.034;2023-04-23T10:40:55;100103.22;;;19.21;35.82
51715;BME280;39115;59.332;18.034;2023-04-23T10:43:16;100097.63;;;19.16;35.88
51715;BME280;39115;59.332;18.034;2023-04-23T10:45:37;100090.38;;;19.09;36.01
51715;BME280;39115;59.332;18.034;2023-04-23T10:47:57;100096.41;;;19.11;35.87
51715;BME280;39115;59.332;18.034;2023-04-23T10:50:18;100087.69;;;19.16;35.66
51715;BME280;39115;59.332;18.034;2023-04-23T10:52:40;100086.00;;;19.22;35.78
51715;BME280;39115;59.332;18.034;2023-04-23T10:55:02;100080.84;;;19.27;35.63
51715;BME280;39115;59.332;18.034;2023-04-23T10:57:22;100077.53;;;19.32;35.68
51715;BME280;39115;59.332;18.034;2023-04-23T10:59:53;100075.44;;;19.34;35.50
51715;BME280;39115;59.332;18.034;2023-04-23T11:02:13;100076.69;;;19.38;35.43
51715;BME280;39115;59.332;18.034;2023-04-23T11:04:34;100069.63;;;19.37;35.48
51715;BME280;39115;59.332;18.034;2023-04-23T11:06:56;100066.28;;;19.35;35.49
51715;BME280;39115;59.332;18.034;2023-04-23T11:09:29;100067.13;;;19.42;35.45
51715;BME280;39115;59.332;18.034;2023-04-23T11:11:50;100065.22;;;19.56;35.34
51715;BME280;39115;59.332;18.034;2023-04-23T11:14:11;100049.84;;;19.63;35.46
51715;BME280;39115;59.332;18.034;2023-04-23T11:16:34;100053.75;;;19.74;35.26
51715;BME280;39115;59.332;18.034;2023-04-23T11:21:16;100056.44;;;19.94;35.24
51715;BME280;39115;59.332;18.034;2023-04-23T11:23:36;100055.81;;;19.99;35.28
51715;BME280;39115;59.332;18.034;2023-04-23T11:25:57;100043.50;;;20.03;35.25
51715;BME280;39115;59.332;18.034;2023-04-23T11:28:18;100054.72;;;20.06;35.04
51715;BME280;39115;59.332;18.034;2023-04-23T11:30:39;100040.56;;;20.11;35.27
51715;BME280;39115;59.332;18.034;2023-04-23T11:32:59;100048.88;;;20.16;35.07
51715;BME280;39115;59.332;18.034;2023-04-23T11:35:21;100034.09;;;20.19;35.15
51715;BME280;39115;59.332;18.034;2023-04-23T11:37:42;100032.84;;;20.21;35.05
51715;BME280;39115;59.332;18.034;2023-04-23T11:40:06;100026.16;;;20.24;35.09
51715;BME280;39115;59.332;18.034;2023-04-23T11:42:30;100017.44;;;20.22;35.10
51715;BME280;39115;59.332;18.034;2023-04-23T11:44:50;100020.19;;;20.15;35.14
51715;BME280;39115;59.332;18.034;2023-04-23T11:47:12;100022.91;;;20.09;35.28
51715;BME280;39115;59.332;18.034;2023-04-23T11:49:33;100021.50;;;19.99;35.35
51715;BME280;39115;59.332;18.034;2023-04-23T11:51:53;100008.28;;;19.84;35.35
51715;BME280;39115;59.332;18.034;2023-04-23T11:54:13;100010.34;;;19.75;35.61
51715;BME280;39115;59.332;18.034;2023-04-23T11:56:33;100010.19;;;19.64;35.51
51715;BME280;39115;59.332;18.034;2023-04-23T11:58:58;100008.34;;;19.57;35.53
51715;BME280;39115;59.332;18.034;2023-04-23T12:01:19;100005.00;;;19.69;35.54
51715;BME280;39115;59.332;18.034;2023-04-23T12:03:39;99996.22;;;19.80;35.44
51715;BME280;39115;59.332;18.034;2023-04-23T12:05:59;99995.78;;;19.83;35.22
51715;BME280;39115;59.332;18.034;2023-04-23T12:08:20;99993.75;;;19.85;35.35
51715;BME280;39115;59.332;18.034;2023-04-23T12:10:45;99986.25;;;19.87;35.47
51715;BME280;39115;59.332;18.034;2023-04-23T12:13:05;99991.22;;;19.90;35.36
51715;BME280;39115;59.332;18.034;2023-04-23T12:15:25;99986.22;;;19.94;35.26